createdAt,value
2022-11-29T00:01:01.093Z,22.65
2022-11-29T00:04:04.316Z,22.05
2022-11-29T00:07:06.646Z,24.23
2022-11-29T00:10:09.673Z,20.83
2022-11-29T00:13:12.071Z,27.23
2022-11-29T00:16:15.780Z,18.75
2022-11-29T00:19:18.311Z,23.83
2022-11-29T00:22:20.656Z,24.15
2022-11-29T00:25:22.894Z,21.42
2022-11-29T00:28:25.346Z,23.15
2022-11-29T00:31:30.787Z,30.48
2022-11-29T00:34:33.218Z,20.65
2022-11-29T00:37:35.690Z,23.67
2022-11-29T00:40:38.082Z,21.65
2022-11-29T00:43:40.759Z,23.00
2022-11-29T00:46:44.323Z,27.30
2022-11-29T00:49:46.644Z,27.88
2022-11-29T00:52:49.542Z,23.90
2022-11-29T00:55:52.798Z,21.38
2022-11-29T00:58:55.424Z,28.33
2022-11-29T01:01:59.011Z,21.98
2022-11-29T01:05:01.365Z,23.55
2022-11-29T01:08:03.808Z,23.42
2022-11-29T01:11:09.021Z,23.00
2022-11-29T01:14:12.405Z,24.55
2022-11-29T01:17:16.187Z,22.88
2022-11-29T01:20:18.448Z,25.00
2022-11-29T01:23:20.673Z,22.48
2022-11-29T01:26:24.824Z,23.63
2022-11-29T01:29:27.048Z,25.02
2022-11-29T01:32:30.958Z,35.47
2022-11-29T01:35:33.187Z,22.95
2022-11-29T01:38:36.222Z,27.77
2022-11-29T01:41:38.513Z,46.67
2022-11-29T01:45:07.776Z,27.58
2022-11-29T01:48:12.602Z,28.30
2022-11-29T01:51:15.035Z,31.20
2022-11-29T01:54:17.861Z,32.63
2022-11-29T01:57:20.489Z,32.83
2022-11-29T02:00:23.141Z,34.85
2022-11-29T02:03:26.819Z,32.35
2022-11-29T02:06:29.628Z,24.50
2022-11-29T02:09:31.878Z,27.83
2022-11-29T02:12:40.311Z,27.40
2022-11-29T02:15:46.515Z,29.45
2022-11-29T02:18:55.848Z,35.35
2022-11-29T02:22:02.661Z,34.70
2022-11-29T02:25:19.834Z,30.75
2022-11-29T02:28:50.951Z,38.00
2022-11-29T02:32:19.692Z,27.45
2022-11-29T02:35:34.226Z,31.75
2022-11-29T02:38:49.941Z,35.13
2022-11-29T02:42:04.439Z,39.13
2022-11-29T02:45:10.700Z,37.13
2022-11-29T02:48:29.148Z,32.58
2022-11-29T02:51:39.405Z,38.25
2022-11-29T02:54:46.620Z,41.55
2022-11-29T02:57:56.251Z,32.30
2022-11-29T03:01:03.632Z,31.90
2022-11-29T03:04:11.588Z,42.70
2022-11-29T03:07:21.175Z,40.13
2022-11-29T03:10:30.903Z,37.97
2022-11-29T03:13:41.955Z,42.97
2022-11-29T03:16:48.341Z,44.70
2022-11-29T03:20:04.379Z,39.58
2022-11-29T03:23:14.991Z,51.35
2022-11-29T03:26:21.351Z,46.17
2022-11-29T03:29:27.908Z,42.00
2022-11-29T03:32:34.624Z,50.55
2022-11-29T03:35:40.297Z,52.15
2022-11-29T03:38:45.089Z,48.85
2022-11-29T03:41:51.713Z,56.47
2022-11-29T03:44:58.565Z,55.30
2022-11-29T03:48:07.592Z,60.67
2022-11-29T03:51:14.581Z,50.80
2022-11-29T03:54:22.971Z,55.83
2022-11-29T03:57:31.137Z,62.75
2022-11-29T04:00:41.513Z,53.63
2022-11-29T04:04:02.488Z,54.90
2022-11-29T04:07:09.718Z,65.03
2022-11-29T04:10:20.256Z,58.67
2022-11-29T04:13:46.645Z,69.15
2022-11-29T04:17:09.973Z,82.72
2022-11-29T04:20:47.960Z,78.15
2022-11-29T04:24:35.287Z,88.88
2022-11-29T04:27:49.254Z,84.03
2022-11-29T04:30:59.785Z,77.35
2022-11-29T04:34:39.777Z,84.93
2022-11-29T04:37:59.238Z,90.25
2022-11-29T04:41:36.957Z,104.68
2022-11-29T04:44:58.945Z,101.65
2022-11-29T04:48:13.901Z,108.25
2022-11-29T04:51:24.757Z,119.55
2022-11-29T04:54:31.360Z,118.65
2022-11-29T04:57:38.708Z,130.35
2022-11-29T05:00:48.626Z,111.07
2022-11-29T05:03:57.241Z,124.10
2022-11-29T05:07:03.827Z,117.75
2022-11-29T05:10:19.735Z,119.28
2022-11-29T05:13:29.041Z,130.52
2022-11-29T05:16:46.435Z,129.00
2022-11-29T05:20:15.576Z,139.13
2022-11-29T05:23:30.212Z,137.73
2022-11-29T05:26:37.383Z,155.50
2022-11-29T05:29:42.195Z,141.57
2022-11-29T05:32:55.684Z,141.38
2022-11-29T05:36:02.485Z,148.05
2022-11-29T05:39:24.734Z,131.95
2022-11-29T05:42:51.434Z,151.40
2022-11-29T05:45:58.980Z,145.95
2022-11-29T05:49:12.503Z,135.93
2022-11-29T05:52:22.125Z,141.88
2022-11-29T05:55:35.178Z,134.07
2022-11-29T05:58:43.445Z,146.52
2022-11-29T06:01:50.439Z,138.07
2022-11-29T06:05:03.958Z,159.98
2022-11-29T06:08:10.803Z,136.43
2022-11-29T06:11:16.534Z,144.07
2022-11-29T06:14:34.303Z,170.00
2022-11-29T06:17:54.094Z,175.18
2022-11-29T06:21:12.646Z,186.68
2022-11-29T06:24:26.245Z,185.15
2022-11-29T06:27:49.552Z,181.70
2022-11-29T06:31:00.970Z,200.38
2022-11-29T06:34:11.031Z,190.65
2022-11-29T06:37:19.266Z,198.45
2022-11-29T06:40:22.230Z,208.98
2022-11-29T06:43:28.057Z,209.50
2022-11-29T06:46:38.564Z,207.50
2022-11-29T06:49:46.463Z,209.73
2022-11-29T06:52:55.243Z,198.40
2022-11-29T06:56:04.895Z,199.60
2022-11-29T06:59:11.592Z,202.00
2022-11-29T07:02:25.486Z,197.52
2022-11-29T07:05:29.245Z,203.32
2022-11-29T07:08:33.796Z,184.55
2022-11-29T07:11:36.782Z,190.27
2022-11-29T07:14:39.598Z,186.85
2022-11-29T07:17:51.419Z,190.65
2022-11-29T07:21:01.482Z,184.68
2022-11-29T07:24:09.199Z,199.35
2022-11-29T07:27:16.217Z,166.52
2022-11-29T07:30:21.052Z,169.75
2022-11-29T07:33:30.138Z,190.73
2022-11-29T07:36:40.415Z,196.15
2022-11-29T07:39:50.080Z,181.60
2022-11-29T07:43:04.660Z,192.18
2022-11-29T07:46:08.204Z,195.23
2022-11-29T07:49:11.585Z,213.07
2022-11-29T07:52:16.555Z,186.63
2022-11-29T07:55:21.812Z,183.93
2022-11-29T07:58:25.208Z,194.85
2022-11-29T08:01:27.568Z,213.65
2022-11-29T08:04:30.090Z,214.27
2022-11-29T08:07:34.950Z,203.80
2022-11-29T08:10:38.642Z,205.40
2022-11-29T08:13:41.517Z,182.07
2022-11-29T08:16:43.922Z,188.60
2022-11-29T08:19:46.232Z,181.90
2022-11-29T08:22:54.525Z,203.63
2022-11-29T08:26:00.869Z,182.70
2022-11-29T08:29:04.133Z,192.73
2022-11-29T08:32:06.524Z,188.90
2022-11-29T08:35:12.251Z,176.10
2022-11-29T08:38:14.579Z,207.10
2022-11-29T08:41:18.385Z,164.77
2022-11-29T08:44:20.705Z,163.75
2022-11-29T08:47:38.185Z,188.23
2022-11-29T08:50:40.574Z,170.75
2022-11-29T08:53:43.132Z,185.38
2022-11-29T09:00:10.488Z,164.70
2022-11-29T09:03:31.605Z,175.73
2022-11-29T09:06:39.275Z,189.90
2022-11-29T09:09:41.537Z,153.20
2022-11-29T09:12:45.796Z,172.00
2022-11-29T09:15:48.514Z,164.45
2022-11-29T09:18:52.345Z,172.25
2022-11-29T09:21:54.851Z,170.85
2022-11-29T09:24:57.362Z,191.95
2022-11-29T09:28:02.874Z,182.20
2022-11-29T09:31:05.601Z,193.60
2022-11-29T09:34:07.976Z,182.80
2022-11-29T09:37:10.359Z,188.45
2022-11-29T09:40:16.202Z,196.68
2022-11-29T09:43:26.806Z,190.93
2022-11-29T09:46:36.927Z,187.82
2022-11-29T09:49:54.174Z,178.95
2022-11-29T09:53:05.850Z,200.70
2022-11-29T09:56:14.605Z,180.57
2022-11-29T09:59:22.806Z,168.30
2022-11-29T10:02:30.562Z,159.95
2022-11-29T10:05:38.550Z,166.55
2022-11-29T10:08:45.843Z,183.90
2022-11-29T10:11:59.136Z,183.77
2022-11-29T10:15:09.086Z,174.80
2022-11-29T10:18:16.550Z,172.75
2022-11-29T10:21:22.788Z,168.15
2022-11-29T10:24:25.638Z,160.68
2022-11-29T10:27:29.586Z,142.55
2022-11-29T10:30:34.797Z,150.45
2022-11-29T10:33:39.878Z,168.57
2022-11-29T10:36:44.206Z,148.30
2022-11-29T10:39:48.662Z,135.30
2022-11-29T10:42:54.068Z,124.75
2022-11-29T10:45:58.756Z,161.73
2022-11-29T10:49:03.487Z,157.20
2022-11-29T10:52:11.823Z,148.27
2022-11-29T10:55:16.739Z,157.13
2022-11-29T10:58:26.255Z,136.45
2022-11-29T11:01:33.526Z,117.43
2022-11-29T11:04:42.252Z,124.20
2022-11-29T11:07:45.609Z,119.13
2022-11-29T11:10:55.390Z,106.72
2022-11-29T11:14:03.155Z,103.88
2022-11-29T11:17:21.330Z,95.38
2022-11-29T11:20:25.058Z,85.63
2022-11-29T11:23:29.128Z,77.93
2022-11-29T11:26:42.086Z,76.90
2022-11-29T11:29:44.757Z,92.22
2022-11-29T11:33:13.305Z,84.25
2022-11-29T11:36:22.673Z,93.80
2022-11-29T11:39:27.970Z,93.28
2022-11-29T11:42:37.217Z,91.43
2022-11-29T11:45:39.588Z,81.28
2022-11-29T11:48:43.394Z,86.20
2022-11-29T11:51:45.701Z,89.47
2022-11-29T11:54:51.811Z,86.32
2022-11-29T11:58:03.374Z,81.80
2022-11-29T12:01:17.437Z,85.28
2022-11-29T12:04:23.850Z,79.80
2022-11-29T12:07:59.835Z,85.03
2022-11-29T12:10:59.734Z,98.78
2022-11-29T12:14:05.748Z,77.40
2022-11-29T12:17:20.021Z,87.18
2022-11-29T12:20:26.898Z,85.82
2022-11-29T12:23:35.467Z,86.00
2022-11-29T12:30:02.072Z,84.32
2022-11-29T12:33:16.175Z,88.03
2022-11-29T12:36:28.517Z,80.05
2022-11-29T12:39:52.454Z,87.88
2022-11-29T12:43:00.421Z,93.22
2022-11-29T12:46:09.229Z,89.53
2022-11-29T12:49:16.569Z,87.25
2022-11-29T12:52:24.096Z,83.45
2022-11-29T12:55:30.258Z,81.85
2022-11-29T12:58:41.356Z,92.15
2022-11-29T13:02:02.098Z,86.03
2022-11-29T13:05:12.810Z,89.22
2022-11-29T13:08:27.763Z,103.10
2022-11-29T13:11:33.735Z,87.63
2022-11-29T13:14:43.466Z,89.68
2022-11-29T13:18:02.665Z,86.65
2022-11-29T13:21:09.937Z,102.95
2022-11-29T13:24:21.322Z,92.72
2022-11-29T13:27:26.965Z,85.82
2022-11-29T13:30:29.391Z,99.57
2022-11-29T13:33:39.708Z,100.97
2022-11-29T13:36:52.479Z,92.43
2022-11-29T13:40:04.917Z,83.18
2022-11-29T13:43:21.765Z,96.68
2022-11-29T13:46:41.151Z,96.57
2022-11-29T13:50:05.384Z,89.53
2022-11-29T13:53:15.209Z,97.57
2022-11-29T13:57:05.833Z,109.32
2022-11-29T14:00:34.172Z,92.72
2022-11-29T14:03:41.324Z,96.22
2022-11-29T14:06:48.356Z,82.63
2022-11-29T14:09:57.683Z,101.93
2022-11-29T14:13:21.333Z,90.78
2022-11-29T14:16:31.586Z,89.32
2022-11-29T14:19:34.855Z,98.55
2022-11-29T14:23:13.803Z,106.03
2022-11-29T14:26:30.606Z,93.03
2022-11-29T14:29:55.340Z,109.35
2022-11-29T14:33:02.694Z,88.07
2022-11-29T14:36:26.176Z,94.18
2022-11-29T14:39:31.606Z,106.35
2022-11-29T14:43:16.069Z,106.22
2022-11-29T14:46:29.459Z,107.20
2022-11-29T14:49:40.884Z,90.72
2022-11-29T14:52:51.052Z,93.13
2022-11-29T14:56:32.170Z,86.22
2022-11-29T14:59:50.694Z,97.93
2022-11-29T15:02:55.824Z,83.82
2022-11-29T15:06:01.204Z,93.38
2022-11-29T15:09:10.145Z,99.97
2022-11-29T15:12:30.498Z,82.22
2022-11-29T15:15:50.261Z,84.30
2022-11-29T15:19:22.855Z,89.07
2022-11-29T15:22:28.297Z,92.90
2022-11-29T15:25:33.396Z,82.90
2022-11-29T15:28:36.065Z,90.40
2022-11-29T15:31:40.978Z,86.10
2022-11-29T15:34:50.270Z,82.97
2022-11-29T15:37:54.540Z,89.53
2022-11-29T15:40:58.560Z,81.07
2022-11-29T15:44:14.571Z,91.13
2022-11-29T15:47:22.279Z,88.07
2022-11-29T15:50:26.240Z,89.55
2022-11-29T15:53:36.175Z,85.53
2022-11-29T15:56:43.448Z,85.25
2022-11-29T15:59:48.899Z,90.05
2022-11-29T16:02:53.902Z,81.85
2022-11-29T16:06:01.834Z,81.70
2022-11-29T16:09:07.204Z,94.18
2022-11-29T16:12:13.193Z,75.30
2022-11-29T16:15:25.610Z,91.43
2022-11-29T16:18:29.507Z,89.65
2022-11-29T16:21:32.836Z,84.63
2022-11-29T16:24:37.976Z,79.57
2022-11-29T16:27:41.006Z,85.07
2022-11-29T16:30:43.653Z,83.93
2022-11-29T16:33:50.321Z,82.40
2022-11-29T16:37:05.955Z,86.05
2022-11-29T16:40:21.379Z,85.68
2022-11-29T16:43:56.257Z,92.85
2022-11-29T16:47:11.785Z,89.60
2022-11-29T16:50:20.812Z,88.25
2022-11-29T16:53:35.093Z,93.60
2022-11-29T16:56:39.109Z,95.78
2022-11-29T16:59:44.009Z,89.32
2022-11-29T17:02:46.636Z,95.22
2022-11-29T17:05:49.368Z,87.18
2022-11-29T17:08:53.451Z,85.95
2022-11-29T17:11:56.943Z,96.63
2022-11-29T17:15:01.377Z,86.30
2022-11-29T17:18:04.011Z,89.78
2022-11-29T17:21:06.719Z,86.35
2022-11-29T17:24:12.319Z,82.22
2022-11-29T17:27:14.815Z,78.47
2022-11-29T17:30:18.863Z,81.88
2022-11-29T17:33:21.635Z,77.50
2022-11-29T17:36:24.667Z,76.75
2022-11-29T17:39:27.548Z,66.63
2022-11-29T17:42:30.200Z,62.95
2022-11-29T17:45:34.246Z,70.32
2022-11-29T17:48:38.551Z,66.43
2022-11-29T17:51:56.675Z,61.67
2022-11-29T17:54:59.387Z,60.05
2022-11-29T17:58:02.081Z,60.42
2022-11-29T18:01:08.376Z,75.85
2022-11-29T18:04:10.889Z,57.55
2022-11-29T18:07:14.929Z,62.33
2022-11-29T18:10:17.589Z,60.38
2022-11-29T18:13:21.236Z,60.03
2022-11-29T18:16:27.574Z,67.13
2022-11-29T18:19:31.408Z,70.50
2022-11-29T18:22:34.027Z,57.22
2022-11-29T18:25:39.451Z,67.25
2022-11-29T18:28:44.010Z,71.20
2022-11-29T18:31:48.197Z,64.05
2022-11-29T18:34:51.052Z,56.42
2022-11-29T18:41:17.840Z,66.70
2022-11-29T18:44:29.661Z,73.03
2022-11-29T18:47:35.568Z,75.97
2022-11-29T18:50:38.199Z,72.40
2022-11-29T18:53:41.425Z,62.72
2022-11-29T18:56:45.065Z,61.90
2022-11-29T18:59:47.539Z,59.05
2022-11-29T19:02:51.614Z,65.85
2022-11-29T19:05:54.401Z,71.47
2022-11-29T19:08:59.954Z,73.82
2022-11-29T19:12:03.850Z,68.80
2022-11-29T19:15:08.844Z,66.75
2022-11-29T19:18:12.832Z,57.25
2022-11-29T19:21:16.764Z,59.70
2022-11-29T19:24:19.473Z,66.38
2022-11-29T19:27:26.138Z,75.15
2022-11-29T19:30:28.805Z,63.55
2022-11-29T19:33:37.459Z,61.20
2022-11-29T19:36:47.090Z,55.45
2022-11-29T19:39:50.464Z,56.95
2022-11-29T19:42:53.166Z,65.13
2022-11-29T19:45:58.667Z,58.70
2022-11-29T19:49:04.110Z,59.80
2022-11-29T19:52:06.825Z,62.65
2022-11-29T19:55:09.986Z,58.20
2022-11-29T19:58:21.783Z,64.45
2022-11-29T20:01:28.277Z,64.93
2022-11-29T20:04:32.596Z,68.93
2022-11-29T20:07:37.077Z,67.28
2022-11-29T20:10:42.437Z,61.65
2022-11-29T20:13:46.357Z,77.72
2022-11-29T20:16:51.746Z,76.13
2022-11-29T20:19:55.784Z,65.93
2022-11-29T20:22:58.249Z,66.40
2022-11-29T20:26:00.878Z,72.82
2022-11-29T20:29:07.122Z,70.88
2022-11-29T20:32:09.710Z,63.90
2022-11-29T20:35:17.666Z,68.38
2022-11-29T20:38:29.553Z,69.72
2022-11-29T20:41:37.709Z,71.13
2022-11-29T20:44:46.351Z,63.60
2022-11-29T20:47:54.819Z,74.93
2022-11-29T20:51:02.946Z,63.55
2022-11-29T20:54:05.751Z,64.30
2022-11-29T20:57:08.733Z,73.50
2022-11-29T21:00:12.843Z,73.55
2022-11-29T21:03:15.720Z,60.05
2022-11-29T21:06:19.546Z,70.38
2022-11-29T21:09:21.919Z,56.55
2022-11-29T21:12:24.744Z,62.58
2022-11-29T21:15:28.116Z,67.00
2022-11-29T21:18:32.915Z,55.80
2022-11-29T21:21:44.719Z,61.45
2022-11-29T21:24:52.294Z,66.50
2022-11-29T21:27:55.325Z,72.03
2022-11-29T21:30:58.503Z,69.85
2022-11-29T21:34:01.696Z,67.10
2022-11-29T21:37:05.588Z,63.28
2022-11-29T21:40:09.732Z,65.50
2022-11-29T21:43:15.155Z,78.03
2022-11-29T21:46:20.706Z,70.78
2022-11-29T21:49:23.399Z,72.32
2022-11-29T21:52:27.413Z,74.68
2022-11-29T21:55:32.054Z,73.20
2022-11-29T21:58:35.955Z,63.22
2022-11-29T22:01:40.036Z,63.95
2022-11-29T22:04:42.944Z,67.72
2022-11-29T22:07:47.078Z,64.50
2022-11-29T22:10:49.667Z,64.07
2022-11-29T22:14:12.092Z,79.32
2022-11-29T22:17:14.760Z,68.97
2022-11-29T22:20:17.544Z,80.90
2022-11-29T22:23:21.281Z,76.13
2022-11-29T22:26:24.145Z,71.68
2022-11-29T22:29:26.698Z,81.68
2022-11-29T22:32:31.960Z,75.28
2022-11-29T22:35:34.471Z,76.97
2022-11-29T22:38:38.661Z,73.70
2022-11-29T22:41:41.214Z,77.97
2022-11-29T22:44:43.914Z,75.85
2022-11-29T22:47:46.666Z,84.53
2022-11-29T22:50:49.555Z,74.60
2022-11-29T22:53:54.986Z,72.25
2022-11-29T22:56:57.475Z,69.85
2022-11-29T22:59:59.926Z,81.88
2022-11-29T23:03:03.927Z,72.68
2022-11-29T23:06:08.207Z,72.22
2022-11-29T23:09:16.307Z,75.40
2022-11-29T23:12:19.219Z,73.30
2022-11-29T23:15:21.793Z,67.00
2022-11-29T23:18:24.350Z,73.35
2022-11-29T23:21:28.213Z,67.75
2022-11-29T23:24:32.106Z,79.93
2022-11-29T23:27:34.780Z,65.25
2022-11-29T23:30:37.264Z,73.43
2022-11-29T23:33:40.040Z,72.43
2022-11-29T23:36:44.788Z,76.70
2022-11-29T23:39:52.230Z,85.68
2022-11-29T23:42:54.738Z,80.05
2022-11-29T23:45:57.214Z,75.97
2022-11-29T23:48:59.852Z,79.63
2022-11-29T23:52:02.451Z,81.35
2022-11-29T23:55:07.011Z,87.65
2022-11-29T23:58:10.101Z,84.82
